Solano — WDB7930 — position and weather

sailwx.info

Track history (hours):
 
Tides and Currents Weather Stations Pressure Air Temp Water Temp Dewpoint Dewpoint Depression Visibility Wind Speed Wind Dir Waves Ship Positions

Solano

Owner: San Francisco Bay Area Water Emergency Transportation Authority, Vallejo, WA. More information available from US FCC via Universal Licensing System and Coast Guard Vessel Documentation Center.

Last reported at 2018-Jun-21 00:20 UTC. Time now 2018-Jun-21 04:44 UTC.
Position N 38°06' W 122°16'.

Length 38 m.

Type: Passenger vessel. MMSI: 366950020.

Date/timePositionNaut miles runAvg speedWind from/ knotsBaromVisibWave heightAir tempDewpointWater temp
2018-Jun-21 00:20N 38°06' W 122°16'2 4.6
2018-Jun-20 23:59N 38°05' W 122°15'1327.8
2018-Jun-20 23:30N 37°54' W 122°25'714.7
2018-Jun-20 23:00N 37°47' W 122°23'0 0.0
2018-Jun-20 22:30N 37°47' W 122°23'0 0.0
2018-Jun-20 22:00N 37°47' W 122°23'0 0.0
2018-Jun-20 21:30N 37°47' W 122°23'0 0.0
2018-Jun-20 21:00N 37°47' W 122°23'0 0.0
2018-Jun-20 20:30N 37°47' W 122°23'0 0.0
2018-Jun-20 20:00N 37°47' W 122°23'0 0.0
2018-Jun-20 19:29N 37°47' W 122°23'0 0.6
2018-Jun-20 19:00N 37°47' W 122°23'20 0.5
2018-Jun-19 06:33N 38°06' W 122°16'0 0.1
2018-Jun-19 06:30N 38°06' W 122°16'4 8.6
2018-Jun-19 06:00N 38°03' W 122°19'1529.3
2018-Jun-19 05:31N 37°48' W 122°23'2 3.3
2018-Jun-19 05:00N 37°47' W 122°23'0 0.5
2018-Jun-19 04:31N 37°47' W 122°23'2015.9
2018-Jun-19 03:15N 38°06' W 122°16'3 7.4
2018-Jun-19 02:51N 38°03' W 122°17'1130.6
2018-Jun-19 02:30N 37°55' W 122°25'713.4
2018-Jun-19 02:00N 37°48' W 122°24'4 8.5
2018-Jun-19 01:30N 37°52' W 122°25'1528.3
2018-Jun-19 00:59N 38°04' W 122°15'2 3.6
2018-Jun-19 00:30N 38°06' W 122°16'3 5.2
2018-Jun-19 00:00N 38°03' W 122°16'1427.9
2018-Jun-18 23:31N 37°51' W 122°24'1 1.7
2018-Jun-18 23:01N 37°50' W 122°24'1720.8
2018-Jun-18 22:11N 38°06' W 122°16'0 0.0
2018-Jun-18 19:37N 38°06' W 122°16'3 8.9
2018-Jun-18 19:14N 38°03' W 122°18'933.1
2018-Jun-18 18:58N 37°57' W 122°26'918.4
2018-Jun-18 18:29N 37°48' W 122°24'18 9.0
2018-Jun-18 16:27N 38°05' W 122°15'1226.4
2018-Jun-18 16:00N 37°57' W 122°26'918.4
2018-Jun-18 15:31N 37°48' W 122°24'510.1
2018-Jun-18 15:00N 37°48' W 122°17'5 9.8
2018-Jun-18 14:29N 37°48' W 122°24'18 1.8
2018-Jun-18 04:43N 38°04' W 122°15'932.4
2018-Jun-18 04:27N 37°60' W 122°24'1227.7
2018-Jun-18 04:00N 37°48' W 122°24'2 3.1
2018-Jun-18 03:30N 37°49' W 122°25'1822.4
2018-Jun-18 02:43N 38°04' W 122°15'2 4.4
2018-Jun-18 02:19N 38°06' W 122°16'0 0.0
2018-Jun-18 01:58N 38°06' W 122°16'0 0.0
2018-Jun-18 01:29N 38°06' W 122°16'918.1
2018-Jun-18 01:00N 38°00' W 122°24'1224.7
2018-Jun-18 00:30N 37°48' W 122°24'1 2.4
2018-Jun-18 00:00N 37°49' W 122°25'19 6.0
2018-Jun-17 20:53N 38°06' W 122°16'2 3.6
2018-Jun-17 20:27N 38°05' W 122°15'1430.7
2018-Jun-17 20:00N 37°54' W 122°26'713.4
2018-Jun-17 19:29N 37°48' W 122°24'16 8.9
2018-Jun-17 17:40N 38°03' W 122°17'634.5
2018-Jun-17 17:29N 38°00' W 122°24'1226.0
2018-Jun-17 17:00N 37°48' W 122°24'1 2.4
2018-Jun-17 16:30N 37°49' W 122°25'18 1.5
2018-Jun-17 04:42N 38°04' W 122°15'631.7
2018-Jun-17 04:30N 38°01' W 122°22'1426.2
2018-Jun-17 03:59N 37°48' W 122°24'1 3.0
2018-Jun-17 03:30N 37°49' W 122°25'1910.5
2018-Jun-17 01:43N 38°06' W 122°16'0 0.0
2018-Jun-17 01:27N 38°06' W 122°16'919.5
2018-Jun-17 01:00N 38°00' W 122°24'1225.1
2018-Jun-17 00:30N 37°48' W 122°24'1 2.4
2018-Jun-17 00:01N 37°49' W 122°25'19 6.3
2018-Jun-16 21:00N 38°06' W 122°16'2 3.2
2018-Jun-16 20:28N 38°05' W 122°15'1430.1
2018-Jun-16 20:01N 37°54' W 122°25'611.3
2018-Jun-16 19:30N 37°48' W 122°24'1424.7
2018-Jun-16 18:56N 38°02' W 122°22'7 5.5
2018-Jun-16 17:46N 38°05' W 122°15'727.6
2018-Jun-16 17:30N 38°01' W 122°22'1326.7
2018-Jun-16 17:00N 37°48' W 122°24'1 2.4
2018-Jun-16 16:30N 37°49' W 122°25'17 1.1
2018-Jun-16 01:40N 38°04' W 122°15'635.6
2018-Jun-16 01:30N 38°02' W 122°22'1426.5
2018-Jun-16 00:59N 37°48' W 122°24'4 8.0
2018-Jun-16 00:30N 37°52' W 122°25'13 9.7
2018-Jun-15 23:08N 38°03' W 122°17'536.2
2018-Jun-15 23:00N 38°01' W 122°22'1425.5
2018-Jun-15 22:29N 37°48' W 122°24'1 2.6
2018-Jun-15 22:00N 37°49' W 122°25'1323.5
2018-Jun-15 21:27N 38°01' W 122°22'7 3.6
2018-Jun-15 19:38N 38°06' W 122°16'2 5.2
2018-Jun-15 19:21N 38°05' W 122°15'1231.1
2018-Jun-15 18:58N 37°57' W 122°26'919.1
2018-Jun-15 18:29N 37°48' W 122°24'1910.9
2018-Jun-15 16:44N 38°06' W 122°16'510.8
2018-Jun-15 16:18N 38°03' W 122°20'931.5
2018-Jun-15 16:00N 37°55' W 122°25'714.1
2018-Jun-15 15:30N 37°48' W 122°24'510.6
2018-Jun-15 15:00N 37°48' W 122°17'510.7
2018-Jun-15 14:30N 37°48' W 122°24'19 1.6
2018-Jun-15 02:18N 38°06' W 122°16'0 0.8
2018-Jun-15 01:59N 38°06' W 122°16'613.6
2018-Jun-15 01:30N 38°01' W 122°22'1426.8
2018-Jun-15 01:00N 37°48' W 122°24'3 6.1
2018-Jun-15 00:31N 37°51' W 122°24'1528.8
2018-Jun-14 23:59N 38°04' W 122°16'2 3.4
2018-Jun-14 23:23N 38°06' W 122°16'616.7
2018-Jun-14 23:01N 38°01' W 122°21'1427.2
2018-Jun-14 22:30N 37°48' W 122°24'1 2.4
2018-Jun-14 22:00N 37°49' W 122°25'19 7.7
2018-Jun-14 19:32N 38°06' W 122°16'3 9.2
2018-Jun-14 19:14N 38°03' W 122°17'937.7
2018-Jun-14 19:00N 37°58' W 122°26'1121.5
2018-Jun-14 18:30N 37°48' W 122°24'1910.0
2018-Jun-14 16:37N 38°06' W 122°16'410.4
2018-Jun-14 16:16N 38°03' W 122°18'932.7
2018-Jun-14 16:00N 37°56' W 122°26'917.7
2018-Jun-14 15:30N 37°48' W 122°23'510.4
2018-Jun-14 15:00N 37°48' W 122°17'5 9.7
2018-Jun-14 14:27N 37°48' W 122°24'19 1.8
2018-Jun-14 03:31N 38°06' W 122°16'0 6.5
2018-Jun-14 03:28N 38°06' W 122°16'2 3.7
2018-Jun-14 03:00N 38°05' W 122°15'1326.1
2018-Jun-14 02:30N 37°54' W 122°25'612.6
2018-Jun-14 02:01N 37°48' W 122°24'2 4.7
2018-Jun-14 01:31N 37°50' W 122°25'1630.3
2018-Jun-14 00:58N 38°04' W 122°15'2 4.2
2018-Jun-14 00:30N 38°06' W 122°16'2 4.5
2018-Jun-14 00:01N 38°04' W 122°16'1427.8
2018-Jun-13 23:30N 37°52' W 122°24'3 6.4
2018-Jun-13 23:00N 37°48' W 122°23'1628.3
2018-Jun-13 22:26N 38°04' W 122°16'2 5.7
2018-Jun-13 22:00N 38°06' W 122°16'0 0.0
2018-Jun-13 19:36N 38°06' W 122°16'3 8.4
2018-Jun-13 19:13N 38°03' W 122°18'935.3
2018-Jun-13 18:58N 37°56' W 122°26'918.9
2018-Jun-13 18:30N 37°48' W 122°24'1910.1
2018-Jun-13 16:37N 38°06' W 122°16'3 7.6
2018-Jun-13 16:17N 38°04' W 122°17'1033.5
2018-Jun-13 15:58N 37°56' W 122°26'918.8
2018-Jun-13 15:31N 37°48' W 122°23'510.1
2018-Jun-13 15:00N 37°48' W 122°17'510.3
2018-Jun-13 14:29N 37°48' W 122°24'19 1.7
2018-Jun-13 03:27N 38°06' W 122°16'2 3.6
2018-Jun-13 02:59N 38°05' W 122°15'1328.8
2018-Jun-13 02:31N 37°55' W 122°26'713.7
2018-Jun-13 02:00N 37°48' W 122°23'2 4.8
2018-Jun-13 01:31N 37°50' W 122°26'1629.9
2018-Jun-13 00:58N 38°04' W 122°16'2 4.4
2018-Jun-13 00:28N 38°06' W 122°16'4 8.8
2018-Jun-13 00:00N 38°03' W 122°19'1326.2
2018-Jun-12 23:31N 37°50' W 122°24'2 4.5
2018-Jun-12 23:00N 37°48' W 122°23'1728.0
2018-Jun-12 22:23N 38°04' W 122°15'2 4.4
2018-Jun-12 21:56N 38°06' W 122°16'0 0.1
2018-Jun-12 19:06N 38°06' W 122°16'0 3.0
2018-Jun-12 19:00N 38°06' W 122°16'611.5
2018-Jun-12 18:29N 38°02' W 122°21'1328.2
2018-Jun-12 18:00N 37°49' W 122°25'1 2.4
2018-Jun-12 17:30N 37°48' W 122°24'1426.3
2018-Jun-12 16:58N 38°01' W 122°22'711.6
2018-Jun-12 16:25N 38°06' W 122°16'1 3.3
2018-Jun-12 15:58N 38°05' W 122°15'1329.0
2018-Jun-12 15:30N 37°54' W 122°25'713.3
2018-Jun-12 15:00N 37°48' W 122°24'19 1.5
2018-Jun-12 02:06N 38°06' W 122°16'0 2.1
2018-Jun-12 02:00N 38°06' W 122°16'612.5
2018-Jun-12 01:30N 38°01' W 122°21'1427.4
2018-Jun-12 01:00N 37°48' W 122°24'2 3.2
2018-Jun-12 00:31N 37°49' W 122°24'1729.1
2018-Jun-11 23:56N 38°04' W 122°15'2 3.6
2018-Jun-11 23:26N 38°06' W 122°16'614.8
2018-Jun-11 23:00N 38°01' W 122°21'1427.2
2018-Jun-11 22:30N 37°48' W 122°24'1 2.4
2018-Jun-11 22:00N 37°49' W 122°25'19 8.0
2018-Jun-11 19:38N 38°06' W 122°16'2 6.5
2018-Jun-11 19:19N 38°04' W 122°15'1236.2
2018-Jun-11 18:59N 37°57' W 122°26'918.7
2018-Jun-11 18:30N 37°48' W 122°24'1426.6
2018-Jun-11 17:59N 38°02' W 122°22'712.5
2018-Jun-11 17:27N 38°06' W 122°16'0 0.0
2018-Jun-11 16:49N 38°06' W 122°16'2 7.2
2018-Jun-11 16:30N 38°04' W 122°15'1531.0
2018-Jun-11 16:01N 37°50' W 122°24'2 4.5
2018-Jun-11 15:31N 37°48' W 122°23'5 9.4
2018-Jun-11 15:01N 37°48' W 122°17'510.1
2018-Jun-11 14:30N 37°48' W 122°24'1823.0
2018-Jun-11 13:43N 38°04' W 122°15'  
Track history (hours):
 
Tides and Currents Weather Stations Pressure Air Temp Water Temp Dewpoint Dewpoint Depression Visibility Wind Speed Wind Dir Waves Ship Positions

Solano

Owner: San Francisco Bay Area Water Emergency Transportation Authority, Vallejo, WA. More information available from US FCC via Universal Licensing System and Coast Guard Vessel Documentation Center.

Last reported at 2018-Jun-21 00:20 UTC. Time now 2018-Jun-21 04:44 UTC.
Position N 38°06' W 122°16'.

Length 38 m.

Type: Passenger vessel. MMSI: 366950020.

Date/timePositionNaut miles runAvg speedWind from/ knotsBaromVisibWave heightAir tempDewpointWater temp
2018-Jun-21 00:20N 38°06' W 122°16'2 4.6
2018-Jun-20 23:59N 38°05' W 122°15'1327.8
2018-Jun-20 23:30N 37°54' W 122°25'714.7
2018-Jun-20 23:00N 37°47' W 122°23'0 0.0
2018-Jun-20 22:30N 37°47' W 122°23'0 0.0
2018-Jun-20 22:00N 37°47' W 122°23'0 0.0
2018-Jun-20 21:30N 37°47' W 122°23'0 0.0
2018-Jun-20 21:00N 37°47' W 122°23'0 0.0
2018-Jun-20 20:30N 37°47' W 122°23'0 0.0
2018-Jun-20 20:00N 37°47' W 122°23'0 0.0
2018-Jun-20 19:29N 37°47' W 122°23'0 0.6
2018-Jun-20 19:00N 37°47' W 122°23'20 0.5
2018-Jun-19 06:33N 38°06' W 122°16'0 0.1
2018-Jun-19 06:30N 38°06' W 122°16'4 8.6
2018-Jun-19 06:00N 38°03' W 122°19'1529.3
2018-Jun-19 05:31N 37°48' W 122°23'2 3.3
2018-Jun-19 05:00N 37°47' W 122°23'0 0.5
2018-Jun-19 04:31N 37°47' W 122°23'2015.9
2018-Jun-19 03:15N 38°06' W 122°16'3 7.4
2018-Jun-19 02:51N 38°03' W 122°17'1130.6
2018-Jun-19 02:30N 37°55' W 122°25'713.4
2018-Jun-19 02:00N 37°48' W 122°24'4 8.5
2018-Jun-19 01:30N 37°52' W 122°25'1528.3
2018-Jun-19 00:59N 38°04' W 122°15'2 3.6
2018-Jun-19 00:30N 38°06' W 122°16'3 5.2
2018-Jun-19 00:00N 38°03' W 122°16'1427.9
2018-Jun-18 23:31N 37°51' W 122°24'1 1.7
2018-Jun-18 23:01N 37°50' W 122°24'1720.8
2018-Jun-18 22:11N 38°06' W 122°16'0 0.0
2018-Jun-18 19:37N 38°06' W 122°16'3 8.9
2018-Jun-18 19:14N 38°03' W 122°18'933.1
2018-Jun-18 18:58N 37°57' W 122°26'918.4
2018-Jun-18 18:29N 37°48' W 122°24'18 9.0
2018-Jun-18 16:27N 38°05' W 122°15'1226.4
2018-Jun-18 16:00N 37°57' W 122°26'918.4
2018-Jun-18 15:31N 37°48' W 122°24'510.1
2018-Jun-18 15:00N 37°48' W 122°17'5 9.8
2018-Jun-18 14:29N 37°48' W 122°24'18 1.8
2018-Jun-18 04:43N 38°04' W 122°15'932.4
2018-Jun-18 04:27N 37°60' W 122°24'1227.7
2018-Jun-18 04:00N 37°48' W 122°24'2 3.1
2018-Jun-18 03:30N 37°49' W 122°25'1822.4
2018-Jun-18 02:43N 38°04' W 122°15'2 4.4
2018-Jun-18 02:19N 38°06' W 122°16'0 0.0
2018-Jun-18 01:58N 38°06' W 122°16'0 0.0
2018-Jun-18 01:29N 38°06' W 122°16'918.1
2018-Jun-18 01:00N 38°00' W 122°24'1224.7
2018-Jun-18 00:30N 37°48' W 122°24'1 2.4
2018-Jun-18 00:00N 37°49' W 122°25'19 6.0
2018-Jun-17 20:53N 38°06' W 122°16'2 3.6
2018-Jun-17 20:27N 38°05' W 122°15'1430.7
2018-Jun-17 20:00N 37°54' W 122°26'713.4
2018-Jun-17 19:29N 37°48' W 122°24'16 8.9
2018-Jun-17 17:40N 38°03' W 122°17'634.5
2018-Jun-17 17:29N 38°00' W 122°24'1226.0
2018-Jun-17 17:00N 37°48' W 122°24'1 2.4
2018-Jun-17 16:30N 37°49' W 122°25'18 1.5
2018-Jun-17 04:42N 38°04' W 122°15'631.7
2018-Jun-17 04:30N 38°01' W 122°22'1426.2
2018-Jun-17 03:59N 37°48' W 122°24'1 3.0
2018-Jun-17 03:30N 37°49' W 122°25'1910.5
2018-Jun-17 01:43N 38°06' W 122°16'0 0.0
2018-Jun-17 01:27N 38°06' W 122°16'919.5
2018-Jun-17 01:00N 38°00' W 122°24'1225.1
2018-Jun-17 00:30N 37°48' W 122°24'1 2.4
2018-Jun-17 00:01N 37°49' W 122°25'19 6.3
2018-Jun-16 21:00N 38°06' W 122°16'2 3.2
2018-Jun-16 20:28N 38°05' W 122°15'1430.1
2018-Jun-16 20:01N 37°54' W 122°25'611.3
2018-Jun-16 19:30N 37°48' W 122°24'1424.7
2018-Jun-16 18:56N 38°02' W 122°22'7 5.5
2018-Jun-16 17:46N 38°05' W 122°15'727.6
2018-Jun-16 17:30N 38°01' W 122°22'1326.7
2018-Jun-16 17:00N 37°48' W 122°24'1 2.4
2018-Jun-16 16:30N 37°49' W 122°25'17 1.1
2018-Jun-16 01:40N 38°04' W 122°15'635.6
2018-Jun-16 01:30N 38°02' W 122°22'1426.5
2018-Jun-16 00:59N 37°48' W 122°24'4 8.0
2018-Jun-16 00:30N 37°52' W 122°25'13 9.7
2018-Jun-15 23:08N 38°03' W 122°17'536.2
2018-Jun-15 23:00N 38°01' W 122°22'1425.5
2018-Jun-15 22:29N 37°48' W 122°24'1 2.6
2018-Jun-15 22:00N 37°49' W 122°25'1323.5
2018-Jun-15 21:27N 38°01' W 122°22'7 3.6
2018-Jun-15 19:38N 38°06' W 122°16'2 5.2
2018-Jun-15 19:21N 38°05' W 122°15'1231.1
2018-Jun-15 18:58N 37°57' W 122°26'919.1
2018-Jun-15 18:29N 37°48' W 122°24'1910.9
2018-Jun-15 16:44N 38°06' W 122°16'510.8
2018-Jun-15 16:18N 38°03' W 122°20'931.5
2018-Jun-15 16:00N 37°55' W 122°25'714.1
2018-Jun-15 15:30N 37°48' W 122°24'510.6
2018-Jun-15 15:00N 37°48' W 122°17'510.7
2018-Jun-15 14:30N 37°48' W 122°24'19 1.6
2018-Jun-15 02:18N 38°06' W 122°16'0 0.8
2018-Jun-15 01:59N 38°06' W 122°16'613.6
2018-Jun-15 01:30N 38°01' W 122°22'1426.8
2018-Jun-15 01:00N 37°48' W 122°24'3 6.1
2018-Jun-15 00:31N 37°51' W 122°24'1528.8
2018-Jun-14 23:59N 38°04' W 122°16'2 3.4
2018-Jun-14 23:23N 38°06' W 122°16'616.7
2018-Jun-14 23:01N 38°01' W 122°21'1427.2
2018-Jun-14 22:30N 37°48' W 122°24'1 2.4
2018-Jun-14 22:00N 37°49' W 122°25'19 7.7
2018-Jun-14 19:32N 38°06' W 122°16'3 9.2
2018-Jun-14 19:14N 38°03' W 122°17'937.7
2018-Jun-14 19:00N 37°58' W 122°26'1121.5
2018-Jun-14 18:30N 37°48' W 122°24'1910.0
2018-Jun-14 16:37N 38°06' W 122°16'410.4
2018-Jun-14 16:16N 38°03' W 122°18'932.7
2018-Jun-14 16:00N 37°56' W 122°26'917.7
2018-Jun-14 15:30N 37°48' W 122°23'510.4
2018-Jun-14 15:00N 37°48' W 122°17'5 9.7
2018-Jun-14 14:27N 37°48' W 122°24'19 1.8
2018-Jun-14 03:31N 38°06' W 122°16'0 6.5
2018-Jun-14 03:28N 38°06' W 122°16'2 3.7
2018-Jun-14 03:00N 38°05' W 122°15'1326.1
2018-Jun-14 02:30N 37°54' W 122°25'612.6
2018-Jun-14 02:01N 37°48' W 122°24'2 4.7
2018-Jun-14 01:31N 37°50' W 122°25'1630.3
2018-Jun-14 00:58N 38°04' W 122°15'2 4.2
2018-Jun-14 00:30N 38°06' W 122°16'2 4.5
2018-Jun-14 00:01N 38°04' W 122°16'1427.8
2018-Jun-13 23:30N 37°52' W 122°24'3 6.4
2018-Jun-13 23:00N 37°48' W 122°23'1628.3
2018-Jun-13 22:26N 38°04' W 122°16'2 5.7
2018-Jun-13 22:00N 38°06' W 122°16'0 0.0
2018-Jun-13 19:36N 38°06' W 122°16'3 8.4
2018-Jun-13 19:13N 38°03' W 122°18'935.3
2018-Jun-13 18:58N 37°56' W 122°26'918.9
2018-Jun-13 18:30N 37°48' W 122°24'1910.1
2018-Jun-13 16:37N 38°06' W 122°16'3 7.6
2018-Jun-13 16:17N 38°04' W 122°17'1033.5
2018-Jun-13 15:58N 37°56' W 122°26'918.8
2018-Jun-13 15:31N 37°48' W 122°23'510.1
2018-Jun-13 15:00N 37°48' W 122°17'510.3
2018-Jun-13 14:29N 37°48' W 122°24'19 1.7
2018-Jun-13 03:27N 38°06' W 122°16'2 3.6
2018-Jun-13 02:59N 38°05' W 122°15'1328.8
2018-Jun-13 02:31N 37°55' W 122°26'713.7
2018-Jun-13 02:00N 37°48' W 122°23'2 4.8
2018-Jun-13 01:31N 37°50' W 122°26'1629.9
2018-Jun-13 00:58N 38°04' W 122°16'2 4.4
2018-Jun-13 00:28N 38°06' W 122°16'4 8.8
2018-Jun-13 00:00N 38°03' W 122°19'1326.2
2018-Jun-12 23:31N 37°50' W 122°24'2 4.5
2018-Jun-12 23:00N 37°48' W 122°23'1728.0
2018-Jun-12 22:23N 38°04' W 122°15'2 4.4
2018-Jun-12 21:56N 38°06' W 122°16'0 0.1
2018-Jun-12 19:06N 38°06' W 122°16'0 3.0
2018-Jun-12 19:00N 38°06' W 122°16'611.5
2018-Jun-12 18:29N 38°02' W 122°21'1328.2
2018-Jun-12 18:00N 37°49' W 122°25'1 2.4
2018-Jun-12 17:30N 37°48' W 122°24'1426.3
2018-Jun-12 16:58N 38°01' W 122°22'711.6
2018-Jun-12 16:25N 38°06' W 122°16'1 3.3
2018-Jun-12 15:58N 38°05' W 122°15'1329.0
2018-Jun-12 15:30N 37°54' W 122°25'713.3
2018-Jun-12 15:00N 37°48' W 122°24'19 1.5
2018-Jun-12 02:06N 38°06' W 122°16'0 2.1
2018-Jun-12 02:00N 38°06' W 122°16'612.5
2018-Jun-12 01:30N 38°01' W 122°21'1427.4
2018-Jun-12 01:00N 37°48' W 122°24'2 3.2
2018-Jun-12 00:31N 37°49' W 122°24'1729.1
2018-Jun-11 23:56N 38°04' W 122°15'2 3.6
2018-Jun-11 23:26N 38°06' W 122°16'614.8
2018-Jun-11 23:00N 38°01' W 122°21'1427.2
2018-Jun-11 22:30N 37°48' W 122°24'1 2.4
2018-Jun-11 22:00N 37°49' W 122°25'19 8.0
2018-Jun-11 19:38N 38°06' W 122°16'2 6.5
2018-Jun-11 19:19N 38°04' W 122°15'1236.2
2018-Jun-11 18:59N 37°57' W 122°26'918.7
2018-Jun-11 18:30N 37°48' W 122°24'1426.6
2018-Jun-11 17:59N 38°02' W 122°22'712.5
2018-Jun-11 17:27N 38°06' W 122°16'0 0.0
2018-Jun-11 16:49N 38°06' W 122°16'2 7.2
2018-Jun-11 16:30N 38°04' W 122°15'1531.0
2018-Jun-11 16:01N 37°50' W 122°24'2 4.5
2018-Jun-11 15:31N 37°48' W 122°23'5 9.4
2018-Jun-11 15:01N 37°48' W 122°17'510.1
2018-Jun-11 14:30N 37°48' W 122°24'1823.0
2018-Jun-11 13:43N 38°04' W 122°15'  

Dump ship's entire track history